sensor_id;sensor_type;location;lat;lon;timestamp;temperature;humidity
12446;DHT22;6287;50.984;7.022;2024-02-15T00:04:44;11.70;99.90
12446;DHT22;6287;50.984;7.022;2024-02-15T00:07:10;11.80;99.90
12446;DHT22;6287;50.984;7.022;2024-02-15T00:09:41;11.80;99.90
12446;DHT22;6287;50.984;7.022;2024-02-15T00:12:06;11.80;99.90
12446;DHT22;6287;50.984;7.022;2024-02-15T00:14:33;11.80;99.90
12446;DHT22;6287;50.984;7.022;2024-02-15T00:17:01;11.70;99.90
12446;DHT22;6287;50.984;7.022;2024-02-15T00:19:27;11.70;99.90
12446;DHT22;6287;50.984;7.022;2024-02-15T00:21:56;11.70;99.90
12446;DHT22;6287;50.984;7.022;2024-02-15T00:24:22;11.80;99.90
12446;DHT22;6287;50.984;7.022;2024-02-15T00:26:48;11.80;99.90
12446;DHT22;6287;50.984;7.022;2024-02-15T00:29:13;11.80;99.90
12446;DHT22;6287;50.984;7.022;2024-02-15T00:31:39;11.80;99.90
12446;DHT22;6287;50.984;7.022;2024-02-15T00:34:10;11.80;99.90
12446;DHT22;6287;50.984;7.022;2024-02-15T00:36:36;11.80;99.90
12446;DHT22;6287;50.984;7.022;2024-02-15T00:39:02;11.80;99.90
12446;DHT22;6287;50.984;7.022;2024-02-15T00:41:33;11.80;99.90
12446;DHT22;6287;50.984;7.022;2024-02-15T00:44:00;11.80;99.90
12446;DHT22;6287;50.984;7.022;2024-02-15T00:46:27;11.80;99.90
12446;DHT22;6287;50.984;7.022;2024-02-15T00:48:57;11.80;99.90
12446;DHT22;6287;50.984;7.022;2024-02-15T00:51:23;11.80;99.90
12446;DHT22;6287;50.984;7.022;2024-02-15T00:53:48;11.80;99.90
12446;DHT22;6287;50.984;7.022;2024-02-15T00:56:17;11.80;99.90
12446;DHT22;6287;50.984;7.022;2024-02-15T00:58:45;11.70;99.90
12446;DHT22;6287;50.984;7.022;2024-02-15T01:01:14;11.70;99.90
12446;DHT22;6287;50.984;7.022;2024-02-15T01:03:40;11.70;99.90
12446;DHT22;6287;50.984;7.022;2024-02-15T01:06:08;11.70;99.90
12446;DHT22;6287;50.984;7.022;2024-02-15T01:08:38;11.70;99.90
12446;DHT22;6287;50.984;7.022;2024-02-15T01:11:04;11.70;99.90
12446;DHT22;6287;50.984;7.022;2024-02-15T01:13:32;11.70;99.90
12446;DHT22;6287;50.984;7.022;2024-02-15T01:15:58;11.70;99.90
12446;DHT22;6287;50.984;7.022;2024-02-15T01:18:26;11.70;99.90
12446;DHT22;6287;50.984;7.022;2024-02-15T01:20:52;11.70;99.90
12446;DHT22;6287;50.984;7.022;2024-02-15T01:23:17;11.70;99.90
12446;DHT22;6287;50.984;7.022;2024-02-15T01:25:43;11.60;99.90
12446;DHT22;6287;50.984;7.022;2024-02-15T01:28:11;11.60;99.90
12446;DHT22;6287;50.984;7.022;2024-02-15T01:30:37;11.60;99.90
12446;DHT22;6287;50.984;7.022;2024-02-15T01:33:05;11.60;99.90
12446;DHT22;6287;50.984;7.022;2024-02-15T01:35:31;11.60;99.90
12446;DHT22;6287;50.984;7.022;2024-02-15T01:37:59;11.50;99.90
12446;DHT22;6287;50.984;7.022;2024-02-15T01:40:27;11.60;99.90
12446;DHT22;6287;50.984;7.022;2024-02-15T01:42:53;11.60;99.90
12446;DHT22;6287;50.984;7.022;2024-02-15T01:45:19;11.60;99.90
12446;DHT22;6287;50.984;7.022;2024-02-15T01:47:45;11.60;99.90
12446;DHT22;6287;50.984;7.022;2024-02-15T01:50:12;11.60;99.90
12446;DHT22;6287;50.984;7.022;2024-02-15T01:52:39;11.60;99.90
12446;DHT22;6287;50.984;7.022;2024-02-15T01:55:06;11.60;99.90
12446;DHT22;6287;50.984;7.022;2024-02-15T01:57:36;11.50;99.90
12446;DHT22;6287;50.984;7.022;2024-02-15T02:00:06;11.50;99.90
12446;DHT22;6287;50.984;7.022;2024-02-15T02:02:34;11.50;99.90
12446;DHT22;6287;50.984;7.022;2024-02-15T02:05:01;11.60;99.90
12446;DHT22;6287;50.984;7.022;2024-02-15T02:07:28;11.50;99.90
12446;DHT22;6287;50.984;7.022;2024-02-15T02:09:53;11.50;99.90
12446;DHT22;6287;50.984;7.022;2024-02-15T02:12:22;11.50;99.90
12446;DHT22;6287;50.984;7.022;2024-02-15T02:14:47;11.50;99.90
12446;DHT22;6287;50.984;7.022;2024-02-15T02:17:14;11.50;99.90
12446;DHT22;6287;50.984;7.022;2024-02-15T02:19:40;11.50;99.90
12446;DHT22;6287;50.984;7.022;2024-02-15T02:22:06;11.50;99.90
12446;DHT22;6287;50.984;7.022;2024-02-15T02:24:40;11.50;99.90
12446;DHT22;6287;50.984;7.022;2024-02-15T02:27:08;11.50;99.90
12446;DHT22;6287;50.984;7.022;2024-02-15T02:29:35;11.60;99.90
12446;DHT22;6287;50.984;7.022;2024-02-15T02:32:04;11.50;99.90
12446;DHT22;6287;50.984;7.022;2024-02-15T02:34:31;11.50;99.90
12446;DHT22;6287;50.984;7.022;2024-02-15T02:36:56;11.50;99.90
12446;DHT22;6287;50.984;7.022;2024-02-15T02:39:22;11.50;99.90
12446;DHT22;6287;50.984;7.022;2024-02-15T02:41:49;11.50;99.90
12446;DHT22;6287;50.984;7.022;2024-02-15T02:44:15;11.50;99.90
12446;DHT22;6287;50.984;7.022;2024-02-15T02:46:41;11.50;99.90
12446;DHT22;6287;50.984;7.022;2024-02-15T02:49:07;11.50;99.90
12446;DHT22;6287;50.984;7.022;2024-02-15T02:51:33;11.50;99.90
12446;DHT22;6287;50.984;7.022;2024-02-15T02:53:58;11.50;99.90
12446;DHT22;6287;50.984;7.022;2024-02-15T02:56:26;11.50;99.90
12446;DHT22;6287;50.984;7.022;2024-02-15T02:58:52;11.50;99.90
12446;DHT22;6287;50.984;7.022;2024-02-15T03:01:18;11.50;99.90
12446;DHT22;6287;50.984;7.022;2024-02-15T03:03:43;11.50;99.90
12446;DHT22;6287;50.984;7.022;2024-02-15T03:06:11;11.40;99.90
12446;DHT22;6287;50.984;7.022;2024-02-15T03:08:39;11.40;99.90
12446;DHT22;6287;50.984;7.022;2024-02-15T03:11:05;11.40;99.90
12446;DHT22;6287;50.984;7.022;2024-02-15T03:13:30;11.40;99.90
12446;DHT22;6287;50.984;7.022;2024-02-15T03:15:56;11.40;99.90
12446;DHT22;6287;50.984;7.022;2024-02-15T03:18:21;11.40;99.90
12446;DHT22;6287;50.984;7.022;2024-02-15T03:20:49;11.40;99.90
12446;DHT22;6287;50.984;7.022;2024-02-15T03:23:15;11.40;99.90
12446;DHT22;6287;50.984;7.022;2024-02-15T03:25:41;11.40;99.90
12446;DHT22;6287;50.984;7.022;2024-02-15T03:28:06;11.40;99.90
12446;DHT22;6287;50.984;7.022;2024-02-15T03:30:32;11.40;99.90
12446;DHT22;6287;50.984;7.022;2024-02-15T03:33:00;11.40;99.90
12446;DHT22;6287;50.984;7.022;2024-02-15T03:35:28;11.30;99.90
12446;DHT22;6287;50.984;7.022;2024-02-15T03:37:57;11.40;99.90
12446;DHT22;6287;50.984;7.022;2024-02-15T03:40:26;11.40;99.90
12446;DHT22;6287;50.984;7.022;2024-02-15T03:42:53;11.40;99.90
12446;DHT22;6287;50.984;7.022;2024-02-15T03:45:19;11.40;99.90
12446;DHT22;6287;50.984;7.022;2024-02-15T03:47:45;11.40;99.90
12446;DHT22;6287;50.984;7.022;2024-02-15T03:50:12;11.40;99.90
12446;DHT22;6287;50.984;7.022;2024-02-15T03:52:42;11.40;99.90
12446;DHT22;6287;50.984;7.022;2024-02-15T03:55:09;11.40;99.90
12446;DHT22;6287;50.984;7.022;2024-02-15T03:57:37;11.40;99.90
12446;DHT22;6287;50.984;7.022;2024-02-15T04:00:08;11.40;99.90
12446;DHT22;6287;50.984;7.022;2024-02-15T04:02:37;11.40;99.90
12446;DHT22;6287;50.984;7.022;2024-02-15T04:05:02;11.40;99.90
12446;DHT22;6287;50.984;7.022;2024-02-15T04:07:30;11.40;99.90
12446;DHT22;6287;50.984;7.022;2024-02-15T04:09:58;11.40;99.90
12446;DHT22;6287;50.984;7.022;2024-02-15T04:12:26;11.40;99.90
12446;DHT22;6287;50.984;7.022;2024-02-15T04:14:55;11.40;99.90
12446;DHT22;6287;50.984;7.022;2024-02-15T04:17:21;11.40;99.90
12446;DHT22;6287;50.984;7.022;2024-02-15T04:19:49;11.30;99.90
12446;DHT22;6287;50.984;7.022;2024-02-15T04:22:19;11.50;99.90
12446;DHT22;6287;50.984;7.022;2024-02-15T04:24:45;11.40;99.90
12446;DHT22;6287;50.984;7.022;2024-02-15T04:27:11;11.40;99.90
12446;DHT22;6287;50.984;7.022;2024-02-15T04:29:40;11.40;99.90
12446;DHT22;6287;50.984;7.022;2024-02-15T04:32:10;11.40;99.90
12446;DHT22;6287;50.984;7.022;2024-02-15T04:34:36;11.40;99.90
12446;DHT22;6287;50.984;7.022;2024-02-15T04:37:05;11.40;99.90
12446;DHT22;6287;50.984;7.022;2024-02-15T04:39:37;11.40;99.90
12446;DHT22;6287;50.984;7.022;2024-02-15T04:42:05;11.40;99.90
12446;DHT22;6287;50.984;7.022;2024-02-15T04:44:33;11.40;99.90
12446;DHT22;6287;50.984;7.022;2024-02-15T04:47:01;11.40;99.90
12446;DHT22;6287;50.984;7.022;2024-02-15T04:49:30;11.40;99.90
12446;DHT22;6287;50.984;7.022;2024-02-15T04:51:58;11.40;99.90
12446;DHT22;6287;50.984;7.022;2024-02-15T04:54:27;11.40;99.90
12446;DHT22;6287;50.984;7.022;2024-02-15T04:56:55;11.50;99.90
12446;DHT22;6287;50.984;7.022;2024-02-15T04:59:22;11.50;99.90
12446;DHT22;6287;50.984;7.022;2024-02-15T05:01:54;11.50;99.90
12446;DHT22;6287;50.984;7.022;2024-02-15T05:04:21;11.50;99.90
12446;DHT22;6287;50.984;7.022;2024-02-15T05:06:48;11.50;99.90
12446;DHT22;6287;50.984;7.022;2024-02-15T05:09:16;11.50;99.90
12446;DHT22;6287;50.984;7.022;2024-02-15T05:11:46;11.50;99.90
12446;DHT22;6287;50.984;7.022;2024-02-15T05:14:16;11.50;99.90
12446;DHT22;6287;50.984;7.022;2024-02-15T05:16:46;11.60;99.90
12446;DHT22;6287;50.984;7.022;2024-02-15T05:19:16;11.50;99.90
12446;DHT22;6287;50.984;7.022;2024-02-15T05:21:45;11.50;99.90
12446;DHT22;6287;50.984;7.022;2024-02-15T05:24:17;11.60;99.90
12446;DHT22;6287;50.984;7.022;2024-02-15T05:26:44;11.60;99.90
12446;DHT22;6287;50.984;7.022;2024-02-15T05:29:16;11.60;99.90
12446;DHT22;6287;50.984;7.022;2024-02-15T05:31:42;11.60;99.90
12446;DHT22;6287;50.984;7.022;2024-02-15T05:34:11;11.60;99.90
12446;DHT22;6287;50.984;7.022;2024-02-15T05:36:39;11.60;99.90
12446;DHT22;6287;50.984;7.022;2024-02-15T05:39:05;11.60;99.90
12446;DHT22;6287;50.984;7.022;2024-02-15T05:41:33;11.60;99.90
12446;DHT22;6287;50.984;7.022;2024-02-15T05:44:00;11.60;99.90
12446;DHT22;6287;50.984;7.022;2024-02-15T05:46:28;11.60;99.90
12446;DHT22;6287;50.984;7.022;2024-02-15T05:48:53;11.60;99.90
12446;DHT22;6287;50.984;7.022;2024-02-15T05:51:22;11.60;99.90
12446;DHT22;6287;50.984;7.022;2024-02-15T05:53:49;11.60;99.90
12446;DHT22;6287;50.984;7.022;2024-02-15T05:56:14;11.70;99.90
12446;DHT22;6287;50.984;7.022;2024-02-15T05:58:41;11.60;99.90
12446;DHT22;6287;50.984;7.022;2024-02-15T06:01:07;11.70;99.90
12446;DHT22;6287;50.984;7.022;2024-02-15T06:03:38;11.70;99.90
12446;DHT22;6287;50.984;7.022;2024-02-15T06:06:08;11.70;99.90
12446;DHT22;6287;50.984;7.022;2024-02-15T06:08:34;11.70;99.90
12446;DHT22;6287;50.984;7.022;2024-02-15T06:11:00;11.70;99.90
12446;DHT22;6287;50.984;7.022;2024-02-15T06:13:27;11.80;99.90
12446;DHT22;6287;50.984;7.022;2024-02-15T06:15:54;11.80;99.90
12446;DHT22;6287;50.984;7.022;2024-02-15T06:18:29;11.70;99.90
12446;DHT22;6287;50.984;7.022;2024-02-15T06:20:58;11.70;99.90
12446;DHT22;6287;50.984;7.022;2024-02-15T06:23:25;11.60;99.90
12446;DHT22;6287;50.984;7.022;2024-02-15T06:25:56;11.70;99.90
12446;DHT22;6287;50.984;7.022;2024-02-15T06:28:25;11.70;99.90
12446;DHT22;6287;50.984;7.022;2024-02-15T06:31:10;11.70;99.90
12446;DHT22;6287;50.984;7.022;2024-02-15T06:33:55;11.70;99.90
12446;DHT22;6287;50.984;7.022;2024-02-15T06:36:46;11.70;99.90
12446;DHT22;6287;50.984;7.022;2024-02-15T06:39:31;11.70;99.90
12446;DHT22;6287;50.984;7.022;2024-02-15T06:42:10;11.70;99.90
12446;DHT22;6287;50.984;7.022;2024-02-15T06:44:46;11.70;99.90
12446;DHT22;6287;50.984;7.022;2024-02-15T06:47:13;11.70;99.90
12446;DHT22;6287;50.984;7.022;2024-02-15T06:49:39;11.80;99.90
12446;DHT22;6287;50.984;7.022;2024-02-15T06:52:06;11.70;99.90
12446;DHT22;6287;50.984;7.022;2024-02-15T06:54:41;11.80;99.90
12446;DHT22;6287;50.984;7.022;2024-02-15T06:57:07;11.80;99.90
12446;DHT22;6287;50.984;7.022;2024-02-15T06:59:33;11.70;99.90
12446;DHT22;6287;50.984;7.022;2024-02-15T07:02:00;11.70;99.90
12446;DHT22;6287;50.984;7.022;2024-02-15T07:04:26;11.80;99.90
12446;DHT22;6287;50.984;7.022;2024-02-15T07:06:52;11.70;99.90
12446;DHT22;6287;50.984;7.022;2024-02-15T07:09:20;11.80;99.90
12446;DHT22;6287;50.984;7.022;2024-02-15T07:11:52;11.80;99.90
12446;DHT22;6287;50.984;7.022;2024-02-15T07:14:17;11.80;99.90
12446;DHT22;6287;50.984;7.022;2024-02-15T07:16:47;11.80;99.90
12446;DHT22;6287;50.984;7.022;2024-02-15T07:19:13;11.80;99.90
12446;DHT22;6287;50.984;7.022;2024-02-15T07:21:39;11.90;99.90
12446;DHT22;6287;50.984;7.022;2024-02-15T07:24:08;11.90;99.90
12446;DHT22;6287;50.984;7.022;2024-02-15T07:26:38;11.90;99.90
12446;DHT22;6287;50.984;7.022;2024-02-15T07:29:04;11.90;99.90
12446;DHT22;6287;50.984;7.022;2024-02-15T07:31:33;11.90;99.90
12446;DHT22;6287;50.984;7.022;2024-02-15T07:34:00;11.90;99.90
12446;DHT22;6287;50.984;7.022;2024-02-15T07:36:30;11.90;99.90
12446;DHT22;6287;50.984;7.022;2024-02-15T07:38:56;11.90;99.90
12446;DHT22;6287;50.984;7.022;2024-02-15T07:41:26;11.90;99.90
12446;DHT22;6287;50.984;7.022;2024-02-15T07:43:53;11.90;99.90
12446;DHT22;6287;50.984;7.022;2024-02-15T07:46:21;12.00;99.90
12446;DHT22;6287;50.984;7.022;2024-02-15T07:48:50;12.00;99.90
12446;DHT22;6287;50.984;7.022;2024-02-15T07:51:22;12.00;99.90
12446;DHT22;6287;50.984;7.022;2024-02-15T07:53:51;12.00;99.90
12446;DHT22;6287;50.984;7.022;2024-02-15T07:56:24;12.00;99.90
12446;DHT22;6287;50.984;7.022;2024-02-15T07:58:50;12.00;99.90
12446;DHT22;6287;50.984;7.022;2024-02-15T08:01:17;11.90;99.90
12446;DHT22;6287;50.984;7.022;2024-02-15T08:03:51;11.90;99.90
12446;DHT22;6287;50.984;7.022;2024-02-15T08:06:18;12.00;99.90
12446;DHT22;6287;50.984;7.022;2024-02-15T08:08:47;12.00;99.90
12446;DHT22;6287;50.984;7.022;2024-02-15T08:11:14;12.00;99.90
12446;DHT22;6287;50.984;7.022;2024-02-15T08:13:46;12.00;99.90
12446;DHT22;6287;50.984;7.022;2024-02-15T08:16:16;12.00;99.90
12446;DHT22;6287;50.984;7.022;2024-02-15T08:18:45;12.00;99.90
12446;DHT22;6287;50.984;7.022;2024-02-15T08:21:12;12.00;99.90
12446;DHT22;6287;50.984;7.022;2024-02-15T08:23:37;12.00;99.90
12446;DHT22;6287;50.984;7.022;2024-02-15T08:26:06;11.90;99.90
12446;DHT22;6287;50.984;7.022;2024-02-15T08:28:31;12.00;99.90
12446;DHT22;6287;50.984;7.022;2024-02-15T08:30:57;12.00;99.90
12446;DHT22;6287;50.984;7.022;2024-02-15T08:33:24;11.90;99.90
12446;DHT22;6287;50.984;7.022;2024-02-15T08:35:54;12.00;99.90
12446;DHT22;6287;50.984;7.022;2024-02-15T08:38:23;11.90;99.90
12446;DHT22;6287;50.984;7.022;2024-02-15T08:40:49;11.90;99.90
12446;DHT22;6287;50.984;7.022;2024-02-15T08:43:15;12.00;99.90
12446;DHT22;6287;50.984;7.022;2024-02-15T08:45:41;12.00;99.90
12446;DHT22;6287;50.984;7.022;2024-02-15T08:48:07;12.00;99.90
12446;DHT22;6287;50.984;7.022;2024-02-15T08:50:35;12.00;99.90
12446;DHT22;6287;50.984;7.022;2024-02-15T08:53:01;12.00;99.90
12446;DHT22;6287;50.984;7.022;2024-02-15T08:55:31;11.90;99.90
12446;DHT22;6287;50.984;7.022;2024-02-15T08:58:00;11.90;99.90
12446;DHT22;6287;50.984;7.022;2024-02-15T09:00:31;12.00;99.90
12446;DHT22;6287;50.984;7.022;2024-02-15T09:02:59;12.00;99.90
12446;DHT22;6287;50.984;7.022;2024-02-15T09:05:25;12.00;99.90
12446;DHT22;6287;50.984;7.022;2024-02-15T09:07:51;12.00;99.90
12446;DHT22;6287;50.984;7.022;2024-02-15T09:10:20;12.10;99.90
12446;DHT22;6287;50.984;7.022;2024-02-15T09:12:50;12.20;99.90
12446;DHT22;6287;50.984;7.022;2024-02-15T09:15:18;12.30;99.90
12446;DHT22;6287;50.984;7.022;2024-02-15T09:17:44;12.30;99.90
12446;DHT22;6287;50.984;7.022;2024-02-15T09:20:13;12.40;99.90
12446;DHT22;6287;50.984;7.022;2024-02-15T09:22:48;12.50;99.90
12446;DHT22;6287;50.984;7.022;2024-02-15T09:25:14;12.50;99.90
12446;DHT22;6287;50.984;7.022;2024-02-15T09:27:43;12.60;99.90
12446;DHT22;6287;50.984;7.022;2024-02-15T09:30:09;12.70;99.90
12446;DHT22;6287;50.984;7.022;2024-02-15T09:32:39;12.80;99.90
12446;DHT22;6287;50.984;7.022;2024-02-15T09:35:06;12.90;99.90
12446;DHT22;6287;50.984;7.022;2024-02-15T09:37:35;13.00;99.90
12446;DHT22;6287;50.984;7.022;2024-02-15T09:40:07;13.00;99.90
12446;DHT22;6287;50.984;7.022;2024-02-15T09:42:35;13.00;99.90
12446;DHT22;6287;50.984;7.022;2024-02-15T09:45:01;13.00;99.90
12446;DHT22;6287;50.984;7.022;2024-02-15T09:47:35;13.00;99.90
12446;DHT22;6287;50.984;7.022;2024-02-15T09:50:09;13.00;99.90
12446;DHT22;6287;50.984;7.022;2024-02-15T09:52:39;13.10;99.90
12446;DHT22;6287;50.984;7.022;2024-02-15T09:55:07;13.10;99.90
12446;DHT22;6287;50.984;7.022;2024-02-15T09:57:41;13.20;99.90
12446;DHT22;6287;50.984;7.022;2024-02-15T10:00:08;13.30;99.90
12446;DHT22;6287;50.984;7.022;2024-02-15T10:02:38;13.40;99.90
12446;DHT22;6287;50.984;7.022;2024-02-15T10:05:06;13.60;99.90
12446;DHT22;6287;50.984;7.022;2024-02-15T10:07:37;13.70;99.90
12446;DHT22;6287;50.984;7.022;2024-02-15T10:10:20;13.70;99.90
12446;DHT22;6287;50.984;7.022;2024-02-15T10:12:47;13.90;99.90
12446;DHT22;6287;50.984;7.022;2024-02-15T10:15:32;13.90;99.90
12446;DHT22;6287;50.984;7.022;2024-02-15T10:18:00;13.90;99.90
12446;DHT22;6287;50.984;7.022;2024-02-15T10:20:27;13.90;99.90
12446;DHT22;6287;50.984;7.022;2024-02-15T10:25:26;13.90;99.90
12446;DHT22;6287;50.984;7.022;2024-02-15T10:28:04;13.90;99.90
12446;DHT22;6287;50.984;7.022;2024-02-15T10:30:35;13.90;99.90
12446;DHT22;6287;50.984;7.022;2024-02-15T10:33:01;14.00;99.90
12446;DHT22;6287;50.984;7.022;2024-02-15T10:35:27;14.00;99.90
12446;DHT22;6287;50.984;7.022;2024-02-15T10:38:08;14.10;99.90
12446;DHT22;6287;50.984;7.022;2024-02-15T10:40:34;14.10;99.90
12446;DHT22;6287;50.984;7.022;2024-02-15T10:43:03;14.20;99.90
12446;DHT22;6287;50.984;7.022;2024-02-15T10:45:30;14.30;99.90
12446;DHT22;6287;50.984;7.022;2024-02-15T10:47:59;14.30;99.90
12446;DHT22;6287;50.984;7.022;2024-02-15T10:50:25;14.50;99.90
12446;DHT22;6287;50.984;7.022;2024-02-15T10:52:59;14.60;99.90
12446;DHT22;6287;50.984;7.022;2024-02-15T10:55:57;14.60;99.90
12446;DHT22;6287;50.984;7.022;2024-02-15T10:58:26;14.70;99.90
12446;DHT22;6287;50.984;7.022;2024-02-15T11:00:56;14.80;99.90
12446;DHT22;6287;50.984;7.022;2024-02-15T11:03:27;14.80;99.90
12446;DHT22;6287;50.984;7.022;2024-02-15T11:06:00;14.90;99.90
12446;DHT22;6287;50.984;7.022;2024-02-15T11:08:27;15.00;99.90
12446;DHT22;6287;50.984;7.022;2024-02-15T11:10:53;15.00;99.90
12446;DHT22;6287;50.984;7.022;2024-02-15T11:13:24;15.00;99.90
12446;DHT22;6287;50.984;7.022;2024-02-15T11:15:52;15.10;99.90
12446;DHT22;6287;50.984;7.022;2024-02-15T11:18:46;15.20;99.90
12446;DHT22;6287;50.984;7.022;2024-02-15T11:21:15;15.30;99.90
12446;DHT22;6287;50.984;7.022;2024-02-15T11:23:44;15.40;99.90
12446;DHT22;6287;50.984;7.022;2024-02-15T11:26:45;15.50;99.90
12446;DHT22;6287;50.984;7.022;2024-02-15T11:32:44;15.80;99.90
12446;DHT22;6287;50.984;7.022;2024-02-15T11:35:20;15.90;99.90
12446;DHT22;6287;50.984;7.022;2024-02-15T11:42:56;16.10;99.90
12446;DHT22;6287;50.984;7.022;2024-02-15T11:45:30;16.20;99.90
12446;DHT22;6287;50.984;7.022;2024-02-15T11:48:08;16.20;99.90
12446;DHT22;6287;50.984;7.022;2024-02-15T11:50:41;16.30;99.90
12446;DHT22;6287;50.984;7.022;2024-02-15T11:53:09;16.30;99.90
12446;DHT22;6287;50.984;7.022;2024-02-15T11:55:40;16.30;99.90
12446;DHT22;6287;50.984;7.022;2024-02-15T11:58:08;16.30;99.90
12446;DHT22;6287;50.984;7.022;2024-02-15T12:00:35;16.20;99.90
12446;DHT22;6287;50.984;7.022;2024-02-15T12:03:19;16.20;99.90
12446;DHT22;6287;50.984;7.022;2024-02-15T12:06:04;16.30;99.90
12446;DHT22;6287;50.984;7.022;2024-02-15T12:08:50;16.30;99.90
12446;DHT22;6287;50.984;7.022;2024-02-15T12:11:34;16.30;99.90
12446;DHT22;6287;50.984;7.022;2024-02-15T12:14:21;16.30;99.90
12446;DHT22;6287;50.984;7.022;2024-02-15T12:17:12;16.40;99.90
12446;DHT22;6287;50.984;7.022;2024-02-15T12:20:00;16.40;99.90
12446;DHT22;6287;50.984;7.022;2024-02-15T12:22:40;16.50;99.90
12446;DHT22;6287;50.984;7.022;2024-02-15T12:25:12;16.60;99.90
12446;DHT22;6287;50.984;7.022;2024-02-15T12:27:42;16.60;99.90
12446;DHT22;6287;50.984;7.022;2024-02-15T12:30:14;16.70;99.90
12446;DHT22;6287;50.984;7.022;2024-02-15T12:32:40;16.70;99.90
12446;DHT22;6287;50.984;7.022;2024-02-15T12:35:13;16.70;99.90
12446;DHT22;6287;50.984;7.022;2024-02-15T12:37:42;16.60;99.90
12446;DHT22;6287;50.984;7.022;2024-02-15T12:40:19;16.60;99.90
12446;DHT22;6287;50.984;7.022;2024-02-15T12:42:45;16.60;99.90
12446;DHT22;6287;50.984;7.022;2024-02-15T12:45:31;16.70;99.90
12446;DHT22;6287;50.984;7.022;2024-02-15T12:48:02;16.90;99.90
12446;DHT22;6287;50.984;7.022;2024-02-15T12:50:31;17.10;99.90
12446;DHT22;6287;50.984;7.022;2024-02-15T12:52:57;17.30;99.90
12446;DHT22;6287;50.984;7.022;2024-02-15T12:57:57;17.50;99.90
12446;DHT22;6287;50.984;7.022;2024-02-15T13:00:27;17.60;99.90
12446;DHT22;6287;50.984;7.022;2024-02-15T13:02:59;17.50;99.90
12446;DHT22;6287;50.984;7.022;2024-02-15T13:05:26;17.50;99.90
12446;DHT22;6287;50.984;7.022;2024-02-15T13:07:55;17.50;99.90
12446;DHT22;6287;50.984;7.022;2024-02-15T13:10:21;17.50;99.90
12446;DHT22;6287;50.984;7.022;2024-02-15T13:12:48;17.50;99.90
12446;DHT22;6287;50.984;7.022;2024-02-15T13:15:15;17.60;99.90
12446;DHT22;6287;50.984;7.022;2024-02-15T13:17:48;17.50;99.90
12446;DHT22;6287;50.984;7.022;2024-02-15T13:20:17;17.50;99.90
12446;DHT22;6287;50.984;7.022;2024-02-15T13:22:46;17.50;99.90
12446;DHT22;6287;50.984;7.022;2024-02-15T13:25:15;17.40;99.90
12446;DHT22;6287;50.984;7.022;2024-02-15T13:27:47;17.30;99.90
12446;DHT22;6287;50.984;7.022;2024-02-15T13:30:13;17.30;99.90
12446;DHT22;6287;50.984;7.022;2024-02-15T13:32:39;17.20;99.90
12446;DHT22;6287;50.984;7.022;2024-02-15T13:35:13;17.20;99.90
12446;DHT22;6287;50.984;7.022;2024-02-15T13:37:46;17.10;99.90
12446;DHT22;6287;50.984;7.022;2024-02-15T13:40:13;17.10;99.90
12446;DHT22;6287;50.984;7.022;2024-02-15T13:42:47;17.10;99.90
12446;DHT22;6287;50.984;7.022;2024-02-15T13:45:23;17.10;99.90
12446;DHT22;6287;50.984;7.022;2024-02-15T13:47:50;17.10;99.90
12446;DHT22;6287;50.984;7.022;2024-02-15T13:50:16;17.00;99.90
12446;DHT22;6287;50.984;7.022;2024-02-15T13:52:43;17.00;99.90
12446;DHT22;6287;50.984;7.022;2024-02-15T13:55:13;17.00;99.90
12446;DHT22;6287;50.984;7.022;2024-02-15T13:57:46;17.10;99.90
12446;DHT22;6287;50.984;7.022;2024-02-15T14:00:16;17.10;99.90
12446;DHT22;6287;50.984;7.022;2024-02-15T14:02:58;17.20;99.90
12446;DHT22;6287;50.984;7.022;2024-02-15T14:05:25;17.20;99.90
12446;DHT22;6287;50.984;7.022;2024-02-15T14:08:05;17.20;99.90
12446;DHT22;6287;50.984;7.022;2024-02-15T14:10:32;17.20;99.90
12446;DHT22;6287;50.984;7.022;2024-02-15T14:13:03;17.20;99.90
12446;DHT22;6287;50.984;7.022;2024-02-15T14:15:32;17.30;99.90
12446;DHT22;6287;50.984;7.022;2024-02-15T14:18:10;17.30;99.90
12446;DHT22;6287;50.984;7.022;2024-02-15T14:20:36;17.30;99.90
12446;DHT22;6287;50.984;7.022;2024-02-15T14:23:05;17.20;99.90
12446;DHT22;6287;50.984;7.022;2024-02-15T14:25:32;17.20;99.90
12446;DHT22;6287;50.984;7.022;2024-02-15T14:27:58;17.20;99.90
12446;DHT22;6287;50.984;7.022;2024-02-15T14:30:30;17.20;99.90
12446;DHT22;6287;50.984;7.022;2024-02-15T14:33:17;17.20;99.90
12446;DHT22;6287;50.984;7.022;2024-02-15T14:35:46;17.20;99.90
12446;DHT22;6287;50.984;7.022;2024-02-15T14:38:17;17.20;99.90
12446;DHT22;6287;50.984;7.022;2024-02-15T14:40:46;17.20;99.90
12446;DHT22;6287;50.984;7.022;2024-02-15T14:43:22;17.20;99.90
12446;DHT22;6287;50.984;7.022;2024-02-15T14:45:49;17.20;99.90
12446;DHT22;6287;50.984;7.022;2024-02-15T14:48:17;17.20;99.90
12446;DHT22;6287;50.984;7.022;2024-02-15T14:50:45;17.20;99.90
12446;DHT22;6287;50.984;7.022;2024-02-15T14:53:15;17.20;99.90
12446;DHT22;6287;50.984;7.022;2024-02-15T14:55:46;17.20;99.90
12446;DHT22;6287;50.984;7.022;2024-02-15T14:58:12;17.20;99.90
12446;DHT22;6287;50.984;7.022;2024-02-15T15:00:39;17.30;99.90
12446;DHT22;6287;50.984;7.022;2024-02-15T15:03:07;17.30;99.90
12446;DHT22;6287;50.984;7.022;2024-02-15T15:05:40;17.20;99.90
12446;DHT22;6287;50.984;7.022;2024-02-15T15:08:26;17.00;99.90
12446;DHT22;6287;50.984;7.022;2024-02-15T15:11:11;16.90;99.90
12446;DHT22;6287;50.984;7.022;2024-02-15T15:13:55;16.80;99.90
12446;DHT22;6287;50.984;7.022;2024-02-15T15:16:21;16.70;99.90
12446;DHT22;6287;50.984;7.022;2024-02-15T15:18:47;16.70;99.90
12446;DHT22;6287;50.984;7.022;2024-02-15T15:21:15;16.70;99.90
12446;DHT22;6287;50.984;7.022;2024-02-15T15:23:46;16.60;99.90
12446;DHT22;6287;50.984;7.022;2024-02-15T15:26:19;16.50;99.90
12446;DHT22;6287;50.984;7.022;2024-02-15T15:28:47;16.50;99.90
12446;DHT22;6287;50.984;7.022;2024-02-15T15:31:16;16.50;99.90
12446;DHT22;6287;50.984;7.022;2024-02-15T15:33:43;16.40;99.90
12446;DHT22;6287;50.984;7.022;2024-02-15T15:36:08;16.30;99.90
12446;DHT22;6287;50.984;7.022;2024-02-15T15:38:35;16.20;99.90
12446;DHT22;6287;50.984;7.022;2024-02-15T15:41:01;16.10;99.90
12446;DHT22;6287;50.984;7.022;2024-02-15T15:43:29;16.10;99.90
12446;DHT22;6287;50.984;7.022;2024-02-15T15:45:55;16.00;99.90
12446;DHT22;6287;50.984;7.022;2024-02-15T15:48:23;15.90;99.90
12446;DHT22;6287;50.984;7.022;2024-02-15T15:50:51;15.90;99.90
12446;DHT22;6287;50.984;7.022;2024-02-15T15:53:19;15.90;99.90
12446;DHT22;6287;50.984;7.022;2024-02-15T15:55:47;15.90;99.90
12446;DHT22;6287;50.984;7.022;2024-02-15T15:58:12;15.80;99.90
12446;DHT22;6287;50.984;7.022;2024-02-15T16:00:38;15.80;99.90
12446;DHT22;6287;50.984;7.022;2024-02-15T16:03:06;15.80;99.90
12446;DHT22;6287;50.984;7.022;2024-02-15T16:05:32;15.80;99.90
12446;DHT22;6287;50.984;7.022;2024-02-15T16:07:57;15.60;99.90
12446;DHT22;6287;50.984;7.022;2024-02-15T16:10:23;15.70;99.90
12446;DHT22;6287;50.984;7.022;2024-02-15T16:12:51;15.60;99.90
12446;DHT22;6287;50.984;7.022;2024-02-15T16:15:24;15.60;99.90